Weather History for KIKV - October, 2013

Change the Weather History Date:

Wednesday, October 23, 2013

  Actual Average (KDSM) Record (KDSM)
Temperature  
Mean Temperature 36 °F 50 °F  
Max Temperature 42 °F 60 °F 84 °F (1899)
Min Temperature 30 °F 41 °F 21 °F (1937)
Degree Days  
Heating Degree Days 29 15  
Month to date heating degree days 253  
Since 1 July heating degree days 353  
Cooling Degree Days 0 0  
Month to date cooling degree days 11  
Year to date cooling degree days 1063  
Moisture  
Dew Point 31 °F    
Average Humidity 78    
Maximum Humidity 93    
Minimum Humidity 57    
Precipitation  
Precipitation 0.01 in 0.09 in 1.19 in (1977)
Month to date precipitation 1.97  
Year to date precipitation 31.74  
Snow  
Snow 0.00 in 0.00 in 0.80 in (1938)
Month to date snowfall 0.2  
Since 1 July snowfall 0.2  
Since 1 September snowfall 0.2  
Snow Depth -    
Sea Level Pressure  
Sea Level Pressure 30.09 in    
Wind  
Wind Speed 8 mph (WNW)    
Max Wind Speed 13 mph    
Max Gust Speed 16 mph    
Visibility 10 miles    
Events Rain    
T = Trace of Precipitation, MM = Missing Value Source: NWS Daily Summary

Daily Weather History Graph

Daily Weather History Graph

Search for Another Location

Airport or City:

Trip Planner

Search our weather history database for the weather conditions in past years. The results will help you decide how hot, cold, wet, or windy it might be!

Date:

Astronomy

Oct. 23, 2013 Rise Set
Actual Time 7:35 AM CDT 6:20 PM CDT
Civil Twilight 7:07 AM CDT 6:48 PM CDT
Nautical Twilight 6:35 AM CDT 7:21 PM CDT
Astronomical Twilight 6:02 AM CDT 7:53 PM CDT
Moon 9:50 PM CDT (10/23) 11:55 AM CDT (10/23)
Length of Visible Light 11h 41m
Length of Day
10h 44m
Waning Gibbous, 79% of the Moon is Illuminated
Oct 23
Waning Gibbous
Oct 26
Last Quarter
Nov 3
New
Nov 9
First Quarter
Nov 17
Full

Hourly Weather History & Observations

Time (CDT) Temp. Windchill Dew Point Humidity Pressure Visibility Wind Dir Wind Speed Gust Speed Precip Events Conditions
12:15 AM 37.4 °F 30.8 °F 26.6 °F 65% 30.07 in 10.0 mi NW 9.2 mph - N/A   Overcast
12:35 AM 37.4 °F 31.4 °F 26.6 °F 65% 30.07 in 10.0 mi WNW 8.1 mph - N/A   Overcast
12:55 AM 37.4 °F 31.4 °F 26.6 °F 65% 30.08 in 10.0 mi NW 8.1 mph - N/A   Overcast
1:15 AM 37.4 °F 30.8 °F 26.6 °F 65% 30.07 in 10.0 mi NW 9.2 mph - N/A   Overcast
1:35 AM 37.4 °F 30.8 °F 26.6 °F 65% 30.07 in 10.0 mi NW 9.2 mph - N/A   Overcast
1:55 AM 37.4 °F 31.4 °F 26.6 °F 65% 30.07 in 10.0 mi NW 8.1 mph 16.1 mph N/A   Overcast
2:15 AM 37.4 °F 31.4 °F 26.6 °F 65% 30.06 in 10.0 mi NW 8.1 mph - N/A   Overcast
2:35 AM 37.4 °F 32.8 °F 26.6 °F 65% 30.06 in 10.0 mi NW 5.8 mph - N/A   Overcast
2:55 AM 35.6 °F 31.7 °F 26.6 °F 70% 30.06 in 10.0 mi WNW 4.6 mph - N/A   Overcast
3:15 AM 33.8 °F 27.7 °F 26.6 °F 75% 30.06 in 10.0 mi WNW 6.9 mph - N/A   Overcast
3:35 AM 33.8 °F 27.7 °F 26.6 °F 75% 30.06 in 10.0 mi WNW 6.9 mph - N/A   Overcast
3:55 AM 33.8 °F 28.6 °F 28.4 °F 81% 30.06 in - WNW 5.8 mph - N/A   Mostly Cloudy
4:15 AM 33.8 °F 27.7 °F 28.4 °F 81% 30.07 in 10.0 mi NW 6.9 mph - N/A   Partly Cloudy
4:35 AM 33.8 °F 28.6 °F 28.4 °F 81% 30.06 in 10.0 mi WNW 5.8 mph - N/A   Clear
4:55 AM 33.8 °F 27.7 °F 26.6 °F 75% 30.07 in 10.0 mi NW 6.9 mph - N/A   Clear
5:15 AM 33.8 °F 27.7 °F 26.6 °F 75% 30.07 in 10.0 mi WNW 6.9 mph - N/A   Clear
5:35 AM 32.0 °F 26.4 °F 26.6 °F 80% 30.07 in 10.0 mi West 5.8 mph - N/A   Clear
5:55 AM 32.0 °F 26.4 °F 28.4 °F 87% 30.08 in 10.0 mi West 5.8 mph - N/A   Clear
6:15 AM 32.0 °F 25.6 °F 28.4 °F 87% 30.08 in 10.0 mi West 6.9 mph - N/A   Clear
6:35 AM 30.2 °F 25.4 °F 28.4 °F 93% 30.09 in 10.0 mi West 4.6 mph - N/A   Partly Cloudy
6:55 AM 32.0 °F 26.4 °F 28.4 °F 87% 30.09 in 10.0 mi West 5.8 mph - N/A   Partly Cloudy
7:15 AM 32.0 °F 25.6 °F 28.4 °F 87% 30.09 in 10.0 mi West 6.9 mph - N/A   Scattered Clouds
7:35 AM 32.0 °F 26.4 °F 28.4 °F 87% 30.09 in 10.0 mi West 5.8 mph - N/A   Scattered Clouds
7:55 AM 32.0 °F 27.5 °F 30.2 °F 93% 30.10 in 10.0 mi West 4.6 mph - N/A   Scattered Clouds
8:15 AM 32.0 °F 26.4 °F 30.2 °F 93% 30.10 in 10.0 mi West 5.8 mph - N/A   Clear
8:35 AM 33.8 °F 28.6 °F 30.2 °F 87% 30.11 in 10.0 mi WSW 5.8 mph - N/A   Partly Cloudy
8:55 AM 33.8 °F 27.7 °F 32.0 °F 93% 30.11 in 10.0 mi West 6.9 mph - N/A   Partly Cloudy
9:15 AM 35.6 °F 28.6 °F 32.0 °F 87% 30.10 in 10.0 mi West 9.2 mph - N/A   Clear
9:35 AM 37.4 °F 31.4 °F 32.0 °F 81% 30.11 in 10.0 mi West 8.1 mph - N/A   Clear
9:55 AM 37.4 °F 31.4 °F 30.2 °F 75% 30.12 in 10.0 mi West 8.1 mph - N/A   Scattered Clouds
10:15 AM 39.2 °F 35.0 °F 30.2 °F 70% 30.11 in 10.0 mi WSW 5.8 mph - N/A   Overcast
10:35 AM 41.0 °F 37.1 °F 28.4 °F 61% 30.11 in 10.0 mi WSW 5.8 mph 12.7 mph N/A   Overcast
10:55 AM 41.0 °F 36.4 °F 30.2 °F 65% 30.11 in 10.0 mi West 6.9 mph - N/A   Overcast
11:15 AM 41.0 °F 35.8 °F 28.4 °F 61% 30.11 in 10.0 mi West 8.1 mph 15.0 mph N/A   Overcast
11:35 AM 41.0 °F 37.1 °F 30.2 °F 65% 30.10 in 10.0 mi West 5.8 mph 13.8 mph N/A   Overcast
11:55 AM 42.8 °F 37.0 °F 30.2 °F 61% 30.10 in 10.0 mi West 10.4 mph - N/A   Mostly Cloudy
12:15 PM 42.8 °F 36.2 °F 28.4 °F 57% 30.09 in 10.0 mi West 12.7 mph - N/A   Mostly Cloudy
12:35 PM 42.8 °F 38.0 °F 28.4 °F 57% 30.09 in 10.0 mi WNW 8.1 mph - N/A   Mostly Cloudy
12:55 PM 41.0 °F 37.1 °F 28.4 °F 61% 30.08 in 10.0 mi Variable 5.8 mph 11.5 mph N/A   Overcast
1:15 PM 41.0 °F 36.4 °F 30.2 °F 65% 30.08 in 10.0 mi WNW 6.9 mph - N/A   Overcast
1:35 PM 41.0 °F 34.7 °F 32.0 °F 70% 30.08 in 10.0 mi West 10.4 mph - N/A   Light Drizzle
1:55 PM 39.2 °F 32.5 °F 33.8 °F 81% 30.08 in 9.0 mi West 10.4 mph - N/A   Light Drizzle
2:15 PM 39.2 °F 32.5 °F 33.8 °F 81% 30.08 in 9.0 mi West 10.4 mph - N/A Rain Light Rain
2:35 PM 39.2 °F 33.0 °F 35.6 °F 87% 30.07 in 9.0 mi West 9.2 mph - N/A Rain Light Rain
2:55 PM 39.2 °F 34.2 °F 35.6 °F 87% 30.07 in 9.0 mi WSW 6.9 mph - 0.01 in   Light Drizzle
3:15 PM 39.2 °F 34.2 °F 35.6 °F 87% 30.07 in 10.0 mi WNW 6.9 mph - N/A   Light Drizzle
3:35 PM 39.2 °F 32.5 °F 35.6 °F 87% 30.08 in 10.0 mi West 10.4 mph - N/A   Light Drizzle
3:55 PM 39.2 °F 34.2 °F 35.6 °F 87% 30.08 in 10.0 mi West 6.9 mph - N/A   Light Drizzle
4:15 PM 39.2 °F 33.6 °F 35.6 °F 87% 30.08 in 9.0 mi WSW 8.1 mph - N/A Rain Light Rain
4:35 PM 39.2 °F 33.6 °F 35.6 °F 87% 30.08 in 10.0 mi West 8.1 mph - N/A   Light Drizzle
4:55 PM 39.2 °F 33.6 °F 35.6 °F 87% 30.08 in 10.0 mi West 8.1 mph - N/A   Overcast
5:15 PM 39.2 °F 33.0 °F 35.6 °F 87% 30.09 in 10.0 mi West 9.2 mph - N/A   Overcast
5:35 PM 39.2 °F 34.2 °F 35.6 °F 87% 30.09 in 10.0 mi West 6.9 mph - N/A   Overcast
5:55 PM 39.2 °F 34.2 °F 35.6 °F 87% 30.09 in 10.0 mi West 6.9 mph 12.7 mph N/A   Overcast
6:15 PM 39.2 °F 33.6 °F 35.6 °F 87% 30.09 in 10.0 mi West 8.1 mph - N/A   Light Drizzle
6:35 PM 39.2 °F 34.2 °F 35.6 °F 87% 30.10 in 9.0 mi West 6.9 mph - N/A   Light Drizzle
6:55 PM 39.2 °F 33.6 °F 35.6 °F 87% 30.10 in 10.0 mi West 8.1 mph - N/A   Overcast
7:15 PM 39.2 °F 35.0 °F 35.6 °F 87% 30.10 in 10.0 mi West 5.8 mph - N/A   Overcast
7:35 PM 39.2 °F 34.2 °F 37.4 °F 93% 30.11 in 10.0 mi West 6.9 mph - N/A   Overcast
7:55 PM 39.2 °F 33.6 °F 37.4 °F 93% 30.11 in 6.0 mi WNW 8.1 mph - N/A   Light Drizzle
8:15 PM 39.2 °F 34.2 °F 35.6 °F 87% 30.11 in 10.0 mi WNW 6.9 mph - N/A   Overcast
8:35 PM 39.2 °F 35.0 °F 35.6 °F 87% 30.11 in 10.0 mi WNW 5.8 mph - N/A   Overcast
8:55 PM 39.2 °F 34.2 °F 35.6 °F 87% 30.12 in 10.0 mi WNW 6.9 mph - N/A   Overcast
9:15 PM 39.2 °F 33.6 °F 35.6 °F 87% 30.13 in 10.0 mi NW 8.1 mph - N/A   Overcast
9:35 PM 39.2 °F 33.0 °F 33.8 °F 81% 30.13 in 10.0 mi NNW 9.2 mph 16.1 mph N/A   Overcast
9:55 PM 39.2 °F 33.0 °F 32.0 °F 75% 30.14 in 10.0 mi NW 9.2 mph 15.0 mph N/A   Overcast
10:15 PM 37.4 °F 30.8 °F 30.2 °F 75% 30.14 in 10.0 mi NNW 9.2 mph - N/A   Overcast
10:35 PM 37.4 °F 31.4 °F 30.2 °F 75% 30.14 in 10.0 mi NW 8.1 mph - N/A   Overcast
10:55 PM 37.4 °F 31.4 °F 30.2 °F 75% 30.15 in 10.0 mi NW 8.1 mph - N/A   Overcast
11:15 PM 37.4 °F 31.4 °F 28.4 °F 70% 30.15 in 10.0 mi NW 8.1 mph - N/A   Overcast
11:35 PM 37.4 °F 31.4 °F 28.4 °F 70% 30.15 in 10.0 mi NW 8.1 mph - N/A   Overcast
11:55 PM 37.4 °F 30.8 °F 28.4 °F 70% 30.15 in 10.0 mi NW 9.2 mph 16.1 mph N/A   Overcast